createdAt,value
2023-03-01T00:00:40.834Z,67.38
2023-03-01T00:03:25.149Z,67.25
2023-03-01T00:05:53.222Z,67.53
2023-03-01T00:08:41.347Z,67.33
2023-03-01T00:11:16.698Z,67.30
2023-03-01T00:13:56.805Z,67.57
2023-03-01T00:16:30.298Z,67.63
2023-03-01T00:18:59.575Z,67.51
2023-03-01T00:21:30.429Z,67.48
2023-03-01T00:24:00.654Z,67.49
2023-03-01T00:26:32.086Z,67.95
2023-03-01T00:29:19.656Z,67.78
2023-03-01T00:32:07.582Z,67.79
2023-03-01T00:34:56.344Z,68.19
2023-03-01T00:37:44.362Z,68.39
2023-03-01T00:40:17.363Z,68.25
2023-03-01T00:42:56.400Z,68.14
2023-03-01T00:45:23.857Z,68.40
2023-03-01T00:48:11.605Z,68.48
2023-03-01T00:50:53.074Z,68.36
2023-03-01T00:53:41.336Z,68.44
2023-03-01T00:56:29.469Z,68.43
2023-03-01T00:58:57.617Z,68.50
2023-03-01T01:01:45.234Z,68.61
2023-03-01T01:04:14.514Z,68.72
2023-03-01T01:06:46.840Z,68.72
2023-03-01T01:09:18.823Z,68.92
2023-03-01T01:12:06.658Z,69.02
2023-03-01T01:14:37.711Z,68.88
2023-03-01T01:17:08.286Z,69.17
2023-03-01T01:19:56.264Z,69.16
2023-03-01T01:22:43.848Z,69.36
2023-03-01T01:25:31.479Z,69.20
2023-03-01T01:28:19.032Z,69.01
2023-03-01T01:31:07.147Z,69.43
2023-03-01T01:33:45.493Z,69.46
2023-03-01T01:36:13.442Z,69.54
2023-03-01T01:38:44.676Z,69.92
2023-03-01T01:41:33.538Z,69.51
2023-03-01T01:44:20.840Z,69.94
2023-03-01T01:46:55.130Z,69.94
2023-03-01T01:49:37.967Z,69.93
2023-03-01T01:52:16.308Z,69.76
2023-03-01T01:54:47.701Z,70.18
2023-03-01T01:57:38.840Z,70.19
2023-03-01T02:00:20.267Z,69.91
2023-03-01T02:03:11.207Z,70.19
2023-03-01T02:06:04.346Z,70.19
2023-03-01T02:08:46.655Z,70.24
2023-03-01T02:11:23.552Z,70.32
2023-03-01T02:13:55.414Z,70.06
2023-03-01T02:16:27.992Z,70.36
2023-03-01T02:19:15.493Z,70.37
2023-03-01T02:21:57.714Z,70.44
2023-03-01T02:24:53.417Z,70.30
2023-03-01T02:27:49.904Z,70.74
2023-03-01T02:30:26.724Z,70.63
2023-03-01T02:33:06.580Z,70.95
2023-03-01T02:35:44.451Z,70.68
2023-03-01T02:38:12.622Z,70.72
2023-03-01T02:41:02.118Z,70.43
2023-03-01T02:43:35.232Z,70.74
2023-03-01T02:46:17.491Z,70.59
2023-03-01T02:48:51.897Z,70.77
2023-03-01T02:51:45.322Z,70.61
2023-03-01T02:54:19.013Z,70.82
2023-03-01T02:56:50.590Z,70.85
2023-03-01T02:59:21.575Z,70.97
2023-03-01T03:01:52.569Z,70.89
2023-03-01T03:04:28.974Z,70.61
2023-03-01T03:07:07.438Z,70.94
2023-03-01T03:09:54.776Z,71.05
2023-03-01T03:12:40.815Z,70.74
2023-03-01T03:15:13.966Z,70.95
2023-03-01T03:17:47.197Z,70.80
2023-03-01T03:20:29.834Z,71.01
2023-03-01T03:23:00.562Z,71.00
2023-03-01T03:25:31.724Z,71.08
2023-03-01T03:28:00.137Z,70.99
2023-03-01T03:30:29.532Z,71.03
2023-03-01T03:33:01.550Z,71.16
2023-03-01T03:35:31.406Z,71.15
2023-03-01T03:38:06.907Z,71.27
2023-03-01T03:41:03.656Z,71.20
2023-03-01T03:43:36.345Z,71.28
2023-03-01T03:46:15.342Z,71.20
2023-03-01T03:49:02.742Z,71.38
2023-03-01T03:51:50.578Z,71.34
2023-03-01T03:54:25.267Z,71.50
2023-03-01T03:57:01.733Z,71.51
2023-03-01T03:59:49.006Z,71.38
2023-03-01T04:02:35.569Z,71.35
2023-03-01T04:05:11.513Z,71.39
2023-03-01T04:07:37.537Z,71.58
2023-03-01T04:10:24.884Z,71.55
2023-03-01T04:13:15.382Z,71.73
2023-03-01T04:16:01.430Z,71.46
2023-03-01T04:18:40.386Z,71.60
2023-03-01T04:21:17.856Z,71.48
2023-03-01T04:23:45.809Z,71.18
2023-03-01T04:26:22.510Z,71.49
2023-03-01T04:29:10.054Z,71.40
2023-03-01T04:31:50.355Z,71.66
2023-03-01T04:34:32.211Z,71.98
2023-03-01T04:37:19.531Z,71.79
2023-03-01T04:39:48.605Z,71.87
2023-03-01T04:42:35.897Z,71.86
2023-03-01T04:45:17.622Z,71.61
2023-03-01T04:47:55.032Z,71.55
2023-03-01T04:50:42.754Z,71.71
2023-03-01T04:53:31.106Z,71.92
2023-03-01T04:56:20.049Z,72.17
2023-03-01T04:59:02.060Z,72.21
2023-03-01T05:01:49.823Z,72.19
2023-03-01T05:04:37.283Z,72.18
2023-03-01T05:07:26.073Z,72.15
2023-03-01T05:10:14.204Z,72.39
2023-03-01T05:12:47.878Z,72.15
2023-03-01T05:15:30.644Z,72.30
2023-03-01T05:18:18.514Z,72.36
2023-03-01T05:21:06.617Z,72.27
2023-03-01T05:23:38.069Z,72.27
2023-03-01T05:26:09.462Z,72.53
2023-03-01T05:28:41.839Z,72.52
2023-03-01T05:31:20.258Z,72.34
2023-03-01T05:33:55.112Z,72.52
2023-03-01T05:36:31.160Z,72.37
2023-03-01T05:39:19.024Z,72.22
2023-03-01T05:41:59.144Z,72.69
2023-03-01T05:44:31.407Z,72.57
2023-03-01T05:47:01.079Z,72.63
2023-03-01T05:49:48.614Z,72.48
2023-03-01T05:52:18.012Z,72.55
2023-03-01T05:54:45.219Z,72.34
2023-03-01T05:57:33.350Z,72.16
2023-03-01T06:00:14.750Z,71.73
2023-03-01T06:03:03.449Z,71.79
2023-03-01T06:05:50.991Z,71.61
2023-03-01T06:08:38.960Z,71.39
2023-03-01T06:11:26.500Z,71.15
2023-03-01T06:14:04.516Z,70.77
2023-03-01T06:16:52.026Z,70.45
2023-03-01T06:19:38.679Z,70.18
2023-03-01T06:22:26.100Z,69.75
2023-03-01T06:25:16.058Z,69.39
2023-03-01T06:27:54.554Z,68.42
2023-03-01T06:30:27.200Z,67.94
2023-03-01T06:33:15.206Z,67.13
2023-03-01T06:35:53.192Z,66.54
2023-03-01T06:38:41.850Z,66.04
2023-03-01T06:41:29.564Z,65.36
2023-03-01T06:44:17.235Z,64.46
2023-03-01T06:46:48.176Z,63.10
2023-03-01T06:49:35.712Z,62.66
2023-03-01T06:52:06.117Z,61.83
2023-03-01T06:54:53.656Z,60.26
2023-03-01T06:57:33.888Z,59.55
2023-03-01T07:00:15.735Z,58.42
2023-03-01T07:02:43.149Z,57.15
2023-03-01T07:05:31.080Z,56.04
2023-03-01T07:07:58.599Z,54.86
2023-03-01T07:10:39.590Z,54.60
2023-03-01T07:13:08.023Z,53.73
2023-03-01T07:15:38.090Z,52.47
2023-03-01T07:18:05.736Z,51.78
2023-03-01T07:20:33.164Z,50.60
2023-03-01T07:23:00.372Z,49.33
2023-03-01T07:25:27.828Z,48.29
2023-03-01T07:27:55.796Z,47.88
2023-03-01T07:30:23.692Z,47.01
2023-03-01T07:32:58.540Z,46.00
2023-03-01T07:35:27.329Z,44.93
2023-03-01T07:37:54.547Z,44.28
2023-03-01T07:40:22.040Z,43.55
2023-03-01T07:42:49.232Z,42.74
2023-03-01T07:45:16.418Z,41.83
2023-03-01T07:47:43.693Z,40.88
2023-03-01T07:50:14.573Z,40.52
2023-03-01T07:52:41.661Z,39.46
2023-03-01T07:55:10.571Z,38.59
2023-03-01T07:57:37.763Z,38.01
2023-03-01T08:00:05.100Z,37.69
2023-03-01T08:02:39.382Z,36.55
2023-03-01T08:05:07.181Z,36.30
2023-03-01T08:07:35.318Z,35.64
2023-03-01T08:10:02.863Z,34.97
2023-03-01T08:12:30.096Z,34.72
2023-03-01T08:14:58.054Z,34.05
2023-03-01T08:17:25.581Z,33.84
2023-03-01T08:19:52.592Z,33.21
2023-03-01T08:22:19.892Z,33.13
2023-03-01T08:24:47.570Z,32.96
2023-03-01T08:27:15.209Z,32.63
2023-03-01T08:29:42.397Z,32.23
2023-03-01T08:32:10.246Z,32.24
2023-03-01T08:34:37.910Z,32.25
2023-03-01T08:37:05.063Z,31.84
2023-03-01T08:39:32.932Z,31.54
2023-03-01T08:42:00.625Z,31.76
2023-03-01T08:44:28.091Z,31.85
2023-03-01T08:46:56.812Z,31.93
2023-03-01T08:49:25.725Z,31.88
2023-03-01T08:51:53.257Z,32.36
2023-03-01T08:54:23.440Z,31.92
2023-03-01T08:56:50.973Z,31.72
2023-03-01T08:59:19.391Z,31.97
2023-03-01T09:01:47.086Z,31.94
2023-03-01T09:04:14.879Z,31.75
2023-03-01T09:06:43.202Z,31.46
2023-03-01T09:09:18.141Z,31.40
2023-03-01T09:11:47.069Z,31.02
2023-03-01T09:14:14.962Z,31.68
2023-03-01T09:16:42.290Z,31.77
2023-03-01T09:19:09.661Z,31.89
2023-03-01T09:21:40.459Z,31.77
2023-03-01T09:24:09.413Z,31.72
2023-03-01T09:26:36.628Z,32.07
2023-03-01T09:29:04.128Z,32.31
2023-03-01T09:31:31.334Z,32.21
2023-03-01T09:33:58.828Z,32.27
2023-03-01T09:36:27.484Z,32.18
2023-03-01T09:38:55.920Z,32.57
2023-03-01T09:41:38.118Z,32.94
2023-03-01T09:44:13.265Z,33.26
2023-03-01T09:46:45.473Z,33.31
2023-03-01T09:49:19.310Z,33.27
2023-03-01T09:51:56.719Z,33.42
2023-03-01T09:54:24.345Z,33.50
2023-03-01T09:57:08.513Z,33.49
2023-03-01T09:59:48.128Z,33.66
2023-03-01T10:02:27.653Z,33.47
2023-03-01T10:04:59.870Z,33.56
2023-03-01T10:07:35.512Z,33.38
2023-03-01T10:10:05.905Z,33.56
2023-03-01T10:12:38.375Z,33.64
2023-03-01T10:15:13.803Z,33.39
2023-03-01T10:17:46.754Z,32.92
2023-03-01T10:20:25.201Z,33.02
2023-03-01T10:22:53.724Z,32.75
2023-03-01T10:25:49.660Z,32.36
2023-03-01T10:28:22.962Z,32.51
2023-03-01T10:30:50.171Z,32.69
2023-03-01T10:33:23.545Z,32.66
2023-03-01T10:35:51.241Z,32.80
2023-03-01T10:38:21.457Z,32.52
2023-03-01T10:40:58.984Z,32.50
2023-03-01T10:43:28.076Z,32.68
2023-03-01T10:45:56.200Z,32.65
2023-03-01T10:48:27.537Z,32.97
2023-03-01T10:51:09.496Z,32.80
2023-03-01T10:53:39.440Z,33.12
2023-03-01T10:56:10.748Z,32.86
2023-03-01T10:58:39.843Z,33.32
2023-03-01T11:01:09.014Z,33.28
2023-03-01T11:03:38.138Z,33.33
2023-03-01T11:06:21.729Z,33.26
2023-03-01T11:08:51.180Z,33.46
2023-03-01T11:11:34.165Z,33.93
2023-03-01T11:14:15.966Z,34.17
2023-03-01T11:17:20.789Z,34.55
2023-03-01T11:20:05.772Z,34.47
2023-03-01T11:22:37.095Z,34.04
2023-03-01T11:25:10.438Z,35.06
2023-03-01T11:27:43.226Z,35.09
2023-03-01T11:30:20.725Z,35.67
2023-03-01T11:32:56.042Z,35.83
2023-03-01T11:35:27.902Z,35.84
2023-03-01T11:38:05.711Z,36.12
2023-03-01T11:40:42.589Z,36.34
2023-03-01T11:43:21.707Z,36.55
2023-03-01T11:46:05.024Z,36.81
2023-03-01T11:48:55.799Z,37.16
2023-03-01T11:51:36.022Z,37.72
2023-03-01T11:54:16.523Z,38.13
2023-03-01T11:56:49.678Z,38.32
2023-03-01T11:59:48.047Z,38.52
2023-03-01T12:02:40.365Z,38.60
2023-03-01T12:05:43.355Z,38.87
2023-03-01T12:08:16.767Z,38.66
2023-03-01T12:10:53.972Z,38.76
2023-03-01T12:13:54.498Z,38.57
2023-03-01T12:16:39.204Z,38.81
2023-03-01T12:19:42.112Z,39.16
2023-03-01T12:22:34.205Z,39.31
2023-03-01T12:25:18.358Z,39.05
2023-03-01T12:28:00.734Z,39.58
2023-03-01T12:30:39.374Z,39.48
2023-03-01T12:33:21.011Z,39.85
2023-03-01T12:36:06.288Z,39.82
2023-03-01T12:38:48.612Z,40.14
2023-03-01T12:41:40.310Z,40.27
2023-03-01T12:44:28.646Z,40.23
2023-03-01T12:47:28.526Z,40.05
2023-03-01T12:50:22.476Z,39.91
2023-03-01T12:52:55.371Z,39.90
2023-03-01T12:55:32.119Z,39.92
2023-03-01T12:58:08.762Z,39.67
2023-03-01T13:00:43.478Z,39.65
2023-03-01T13:03:22.035Z,39.92
2023-03-01T13:06:07.500Z,40.30
2023-03-01T13:08:42.779Z,40.51
2023-03-01T13:11:18.996Z,40.74
2023-03-01T13:14:34.964Z,40.85
2023-03-01T13:17:02.564Z,41.21
2023-03-01T13:19:33.485Z,41.33
2023-03-01T13:22:32.654Z,41.73
2023-03-01T13:25:21.501Z,41.89
2023-03-01T13:27:49.780Z,41.67
2023-03-01T13:30:44.421Z,41.80
2023-03-01T13:33:47.221Z,41.85
2023-03-01T13:36:51.096Z,41.75
2023-03-01T13:39:34.773Z,41.78
2023-03-01T13:42:02.907Z,41.92
2023-03-01T13:44:34.793Z,41.98
2023-03-01T13:47:18.796Z,42.32
2023-03-01T13:49:49.387Z,42.34
2023-03-01T13:52:36.818Z,42.76
2023-03-01T13:55:17.802Z,43.40
2023-03-01T13:57:49.168Z,43.67
2023-03-01T14:00:40.035Z,44.22
2023-03-01T14:03:12.146Z,44.22
2023-03-01T14:05:40.235Z,44.58
2023-03-01T14:08:19.910Z,44.80
2023-03-01T14:10:55.464Z,45.30
2023-03-01T14:13:35.959Z,45.59
2023-03-01T14:16:17.357Z,45.96
2023-03-01T14:19:03.918Z,46.34
2023-03-01T14:21:31.607Z,46.74
2023-03-01T14:23:59.914Z,46.65
2023-03-01T14:26:27.716Z,46.68
2023-03-01T14:28:58.487Z,46.81
2023-03-01T14:31:52.679Z,46.97
2023-03-01T14:34:24.209Z,46.93
2023-03-01T14:36:51.784Z,46.86
2023-03-01T14:39:27.445Z,46.68
2023-03-01T14:41:57.382Z,46.52
2023-03-01T14:44:27.689Z,46.70
2023-03-01T14:46:58.709Z,46.80
2023-03-01T14:49:38.149Z,46.88
2023-03-01T14:52:07.505Z,47.15
2023-03-01T14:54:43.210Z,47.24
2023-03-01T14:57:18.902Z,47.34
2023-03-01T14:59:46.846Z,47.66
2023-03-01T15:02:20.405Z,47.75
2023-03-01T15:04:51.377Z,47.94
2023-03-01T15:07:20.108Z,48.07
2023-03-01T15:09:47.891Z,48.19
2023-03-01T15:12:39.028Z,48.37
2023-03-01T15:15:33.388Z,48.42
2023-03-01T15:18:03.702Z,48.66
2023-03-01T15:20:37.036Z,48.90
2023-03-01T15:23:05.370Z,49.01
2023-03-01T15:25:34.494Z,49.32
2023-03-01T15:28:03.549Z,49.47
2023-03-01T15:30:35.976Z,49.72
2023-03-01T15:33:30.934Z,50.03
2023-03-01T15:35:59.333Z,50.24
2023-03-01T15:38:39.456Z,50.47
2023-03-01T15:41:23.658Z,50.89
2023-03-01T15:43:51.997Z,51.31
2023-03-01T15:46:27.502Z,51.54
2023-03-01T15:48:57.873Z,51.89
2023-03-01T15:51:31.834Z,52.17
2023-03-01T15:54:01.562Z,52.43
2023-03-01T15:56:31.686Z,52.64
2023-03-01T15:59:08.517Z,52.83
2023-03-01T16:01:36.501Z,53.01
2023-03-01T16:04:03.812Z,53.44
2023-03-01T16:06:31.466Z,53.68
2023-03-01T16:08:59.112Z,53.69
2023-03-01T16:11:26.677Z,54.11
2023-03-01T16:13:57.250Z,54.28
2023-03-01T16:16:24.692Z,54.60
2023-03-01T16:18:54.370Z,54.67
2023-03-01T16:21:26.528Z,54.90
2023-03-01T16:23:54.937Z,55.27
2023-03-01T16:26:22.424Z,55.55
2023-03-01T16:28:50.439Z,55.57
2023-03-01T16:31:23.060Z,55.80
2023-03-01T16:33:55.401Z,56.19
2023-03-01T16:36:25.716Z,56.21
2023-03-01T16:38:53.554Z,56.33
2023-03-01T16:41:23.783Z,56.43
2023-03-01T16:43:51.506Z,56.67
2023-03-01T16:46:20.071Z,56.78
2023-03-01T16:48:48.760Z,56.89
2023-03-01T16:51:16.498Z,57.01
2023-03-01T16:53:45.656Z,57.28
2023-03-01T16:56:16.843Z,57.34
2023-03-01T16:58:44.921Z,57.55
2023-03-01T17:01:15.232Z,57.85
2023-03-01T17:03:53.243Z,57.88
2023-03-01T17:06:24.642Z,58.03
2023-03-01T17:08:52.001Z,58.08
2023-03-01T17:11:39.706Z,58.12
2023-03-01T17:14:16.600Z,58.43
2023-03-01T17:16:44.414Z,58.60
2023-03-01T17:19:11.884Z,58.65
2023-03-01T17:21:43.754Z,58.95
2023-03-01T17:24:30.812Z,59.14
2023-03-01T17:27:01.612Z,59.30
2023-03-01T17:29:28.831Z,59.46
2023-03-01T17:31:57.072Z,59.74
2023-03-01T17:34:24.990Z,59.82
2023-03-01T17:36:52.931Z,60.02
2023-03-01T17:39:25.998Z,60.10
2023-03-01T17:42:13.476Z,60.55
2023-03-01T17:44:42.328Z,60.64
2023-03-01T17:47:11.563Z,61.00
2023-03-01T17:49:38.745Z,61.09
2023-03-01T17:52:06.363Z,61.25
2023-03-01T17:54:34.456Z,61.60
2023-03-01T17:57:02.169Z,61.57
2023-03-01T17:59:31.544Z,61.98
2023-03-01T18:02:01.715Z,62.02
2023-03-01T18:04:29.307Z,62.18
2023-03-01T18:06:57.689Z,62.23
2023-03-01T18:09:30.982Z,62.32
2023-03-01T18:11:59.047Z,62.89
2023-03-01T18:14:29.930Z,62.91
2023-03-01T18:17:17.240Z,63.17
2023-03-01T18:19:47.557Z,63.29
2023-03-01T18:22:14.980Z,63.32
2023-03-01T18:24:43.196Z,63.72
2023-03-01T18:27:31.151Z,63.78
2023-03-01T18:30:02.252Z,63.83
2023-03-01T18:32:30.905Z,64.07
2023-03-01T18:34:59.299Z,64.30
2023-03-01T18:37:26.869Z,64.47
2023-03-01T18:39:56.830Z,64.75
2023-03-01T18:42:23.988Z,64.88
2023-03-01T18:44:55.171Z,64.96
2023-03-01T18:47:25.280Z,65.00
2023-03-01T18:49:52.552Z,65.00
2023-03-01T18:52:20.116Z,65.00
2023-03-01T18:54:58.725Z,65.16
2023-03-01T18:57:26.434Z,65.29
2023-03-01T18:59:56.705Z,66.02
2023-03-01T19:02:24.460Z,65.58
2023-03-01T19:04:53.897Z,65.63
2023-03-01T19:07:32.087Z,65.86
2023-03-01T19:09:59.920Z,65.82
2023-03-01T19:12:28.239Z,65.97
2023-03-01T19:14:55.652Z,66.09
2023-03-01T19:17:33.937Z,66.14
2023-03-01T19:20:08.416Z,66.13
2023-03-01T19:22:35.865Z,66.14
2023-03-01T19:25:03.172Z,66.35
2023-03-01T19:27:33.461Z,66.43
2023-03-01T19:30:01.341Z,66.56
2023-03-01T19:32:32.838Z,66.64
2023-03-01T19:35:00.325Z,66.74
2023-03-01T19:37:38.783Z,66.85
2023-03-01T19:40:13.593Z,66.68
2023-03-01T19:42:45.645Z,66.94
2023-03-01T19:45:14.664Z,67.03
2023-03-01T19:47:55.129Z,67.06
2023-03-01T19:50:25.940Z,67.25
2023-03-01T19:52:53.181Z,67.37
2023-03-01T19:55:20.499Z,67.55
2023-03-01T19:57:48.005Z,67.48
2023-03-01T20:00:17.233Z,67.71
2023-03-01T20:02:44.736Z,67.87
2023-03-01T20:05:12.562Z,67.98
2023-03-01T20:07:44.477Z,68.09
2023-03-01T20:10:15.361Z,68.18
2023-03-01T20:12:42.858Z,68.36
2023-03-01T20:15:12.078Z,68.26
2023-03-01T20:17:42.712Z,68.37
2023-03-01T20:20:11.735Z,68.57
2023-03-01T20:22:42.258Z,68.70
2023-03-01T20:25:11.670Z,68.76
2023-03-01T20:27:39.321Z,68.86
2023-03-01T20:30:07.977Z,68.94
2023-03-01T20:32:35.550Z,68.95
2023-03-01T20:35:03.244Z,69.08
2023-03-01T20:37:33.782Z,69.27
2023-03-01T20:40:16.193Z,69.54
2023-03-01T20:42:43.717Z,69.56
2023-03-01T20:45:12.595Z,69.84
2023-03-01T20:47:39.911Z,70.14
2023-03-01T20:50:10.604Z,70.17
2023-03-01T20:52:58.396Z,70.27
2023-03-01T20:55:25.885Z,70.27
2023-03-01T20:57:53.032Z,70.47
2023-03-01T21:00:21.443Z,70.37
2023-03-01T21:02:48.960Z,70.37
2023-03-01T21:05:16.223Z,70.61
2023-03-01T21:07:44.057Z,70.60
2023-03-01T21:10:31.914Z,70.70
2023-03-01T21:12:59.478Z,70.84
2023-03-01T21:15:29.446Z,70.76
2023-03-01T21:17:57.164Z,70.88
2023-03-01T21:20:24.723Z,70.82
2023-03-01T21:22:51.947Z,70.92
2023-03-01T21:25:22.296Z,70.85
2023-03-01T21:27:59.896Z,71.05
2023-03-01T21:30:28.991Z,71.06
2023-03-01T21:32:56.175Z,71.12
2023-03-01T21:35:24.231Z,71.14
2023-03-01T21:38:03.077Z,71.39
2023-03-01T21:40:30.601Z,71.33
2023-03-01T21:43:00.635Z,71.32
2023-03-01T21:45:28.350Z,71.53
2023-03-01T21:48:15.853Z,71.53
2023-03-01T21:50:43.085Z,71.61
2023-03-01T21:53:10.531Z,71.72
2023-03-01T21:55:58.556Z,71.72
2023-03-01T21:58:29.445Z,71.72
2023-03-01T22:00:57.280Z,71.89
2023-03-01T22:03:25.066Z,71.88
2023-03-01T22:06:03.385Z,72.15
2023-03-01T22:08:33.205Z,72.25
2023-03-01T22:11:03.584Z,72.26
2023-03-01T22:13:30.730Z,72.42
2023-03-01T22:16:11.048Z,72.48
2023-03-01T22:18:59.323Z,72.53
2023-03-01T22:21:26.786Z,72.76
2023-03-01T22:24:04.528Z,72.86
2023-03-01T22:26:53.711Z,72.98
2023-03-01T22:29:23.348Z,73.16
2023-03-01T22:32:02.195Z,73.30
2023-03-01T22:34:49.836Z,73.24
2023-03-01T22:37:25.105Z,73.25
2023-03-01T22:39:52.307Z,73.34
2023-03-01T22:42:19.997Z,73.62
2023-03-01T22:45:09.462Z,73.60
2023-03-01T22:47:38.795Z,73.49
2023-03-01T22:50:26.578Z,73.63
2023-03-01T22:52:53.782Z,73.63
2023-03-01T22:55:24.006Z,73.67
2023-03-01T22:57:54.423Z,73.71
2023-03-01T23:00:29.249Z,73.83
2023-03-01T23:02:56.929Z,74.01
2023-03-01T23:05:35.692Z,74.18
2023-03-01T23:08:03.561Z,74.35
2023-03-01T23:10:30.920Z,74.35
2023-03-01T23:13:07.617Z,74.45
2023-03-01T23:15:58.126Z,74.52
2023-03-01T23:18:40.088Z,74.69
2023-03-01T23:21:18.959Z,74.74
2023-03-01T23:23:48.055Z,74.99
2023-03-01T23:26:19.306Z,75.04
2023-03-01T23:28:49.880Z,75.07
2023-03-01T23:31:20.436Z,75.11
2023-03-01T23:33:58.821Z,75.15
2023-03-01T23:36:38.473Z,75.37
2023-03-01T23:39:16.164Z,75.51
2023-03-01T23:41:56.573Z,75.52
2023-03-01T23:44:24.717Z,75.55
2023-03-01T23:46:55.127Z,75.78
2023-03-01T23:49:24.980Z,75.72
2023-03-01T23:51:57.533Z,75.84
2023-03-01T23:54:26.900Z,76.00
2023-03-01T23:56:54.583Z,75.89
2023-03-01T23:59:42.359Z,75.94
